createdAt,value
2019-01-30T00:01:45.686Z,96.02
2019-01-30T00:02:45.688Z,96.21
2019-01-30T00:04:38.569Z,96.12
2019-01-30T00:05:38.581Z,96.31
2019-01-30T00:07:31.479Z,95.83
2019-01-30T00:08:31.473Z,95.55
2019-01-30T00:10:24.365Z,95.64
2019-01-30T00:11:24.367Z,95.55
2019-01-30T00:13:17.309Z,95.74
2019-01-30T00:14:17.330Z,95.64
2019-01-30T00:16:10.155Z,95.45
2019-01-30T00:17:10.153Z,95.45
2019-01-30T00:19:03.040Z,95.07
2019-01-30T00:20:03.049Z,95.07
2019-01-30T00:21:55.942Z,94.98
2019-01-30T00:22:55.943Z,95.17
2019-01-30T00:24:49.030Z,95.36
2019-01-30T00:25:49.036Z,95.26
2019-01-30T00:27:41.932Z,95.93
2019-01-30T00:28:41.932Z,95.74
2019-01-30T00:30:34.830Z,96.12
2019-01-30T00:31:34.833Z,95.36
2019-01-30T00:33:27.718Z,95.74
2019-01-30T00:34:27.729Z,95.55
2019-01-30T00:36:20.626Z,95.83
2019-01-30T00:37:20.624Z,95.93
2019-01-30T00:39:13.506Z,95.74
2019-01-30T00:40:13.516Z,95.64
2019-01-30T00:42:06.408Z,95.83
2019-01-30T00:43:06.410Z,95.26
2019-01-30T00:44:59.294Z,95.17
2019-01-30T00:45:59.301Z,95.17
2019-01-30T00:47:52.197Z,95.17
2019-01-30T00:48:52.200Z,94.98
2019-01-30T00:50:45.089Z,95.93
2019-01-30T00:51:45.090Z,95.93
2019-01-30T00:53:37.972Z,95.74
2019-01-30T00:54:37.984Z,95.64
2019-01-30T00:56:30.875Z,95.74
2019-01-30T00:57:30.889Z,95.26
2019-01-30T00:59:23.761Z,95.93
2019-01-30T01:00:23.770Z,95.93
2019-01-30T01:02:16.663Z,95.17
2019-01-30T01:03:16.665Z,95.45
2019-01-30T01:05:09.549Z,95.17
2019-01-30T01:06:09.558Z,95.45
2019-01-30T01:08:02.452Z,95.45
2019-01-30T01:09:02.453Z,95.07
2019-01-30T01:10:55.346Z,95.45
2019-01-30T01:11:55.347Z,95.45
2019-01-30T01:13:48.233Z,95.55
2019-01-30T01:14:48.244Z,95.74
2019-01-30T01:16:41.137Z,95.64
2019-01-30T01:17:41.140Z,95.93
2019-01-30T01:19:34.113Z,95.64
2019-01-30T01:20:34.031Z,96.31
2019-01-30T01:22:26.926Z,96.12
2019-01-30T01:23:26.932Z,96.12
2019-01-30T01:25:19.813Z,96.21
2019-01-30T01:26:19.820Z,95.93
2019-01-30T01:28:12.716Z,96.02
2019-01-30T01:29:12.714Z,96.88
2019-01-30T01:31:05.660Z,96.59
2019-01-30T01:32:05.619Z,96.88
2019-01-30T01:33:58.503Z,96.02
2019-01-30T01:34:58.515Z,96.12
2019-01-30T01:36:51.408Z,96.40
2019-01-30T01:37:51.410Z,96.21
2019-01-30T01:39:44.294Z,95.83
2019-01-30T01:40:44.306Z,96.40
2019-01-30T01:42:37.198Z,96.21
2019-01-30T01:43:37.198Z,96.31
2019-01-30T01:45:30.084Z,96.40
2019-01-30T01:46:30.092Z,95.55
2019-01-30T01:48:22.985Z,95.55
2019-01-30T01:49:22.990Z,95.64
2019-01-30T01:51:15.880Z,95.64
2019-01-30T01:52:15.880Z,95.74
2019-01-30T01:54:08.843Z,96.21
2019-01-30T01:55:08.810Z,96.21
2019-01-30T01:57:01.702Z,95.64
2019-01-30T01:58:01.703Z,95.64
2019-01-30T01:59:54.588Z,95.93
2019-01-30T02:00:54.597Z,95.45
2019-01-30T02:02:47.488Z,95.55
2019-01-30T02:03:47.491Z,95.64
2019-01-30T02:05:40.374Z,95.45
2019-01-30T02:06:40.382Z,94.98
2019-01-30T02:08:33.276Z,95.55
2019-01-30T02:09:33.277Z,95.26
2019-01-30T02:11:26.170Z,95.64
2019-01-30T02:12:26.169Z,94.98
2019-01-30T02:14:19.055Z,95.07
2019-01-30T02:15:19.065Z,95.45
2019-01-30T02:17:12.026Z,95.17
2019-01-30T02:18:11.956Z,95.26
2019-01-30T02:20:04.840Z,95.64
2019-01-30T02:21:04.852Z,95.64
2019-01-30T02:22:57.742Z,94.89
2019-01-30T02:23:57.744Z,94.70
2019-01-30T02:25:50.627Z,94.04
2019-01-30T02:26:50.633Z,93.94
2019-01-30T02:28:43.527Z,93.94
2019-01-30T02:29:43.528Z,94.32
2019-01-30T02:31:36.497Z,94.23
2019-01-30T02:32:36.422Z,94.23
2019-01-30T02:34:29.313Z,93.94
2019-01-30T02:35:29.319Z,94.32
2019-01-30T02:37:22.212Z,94.04
2019-01-30T02:38:22.216Z,94.23
2019-01-30T02:40:15.099Z,94.04
2019-01-30T02:41:15.107Z,94.04
2019-01-30T02:43:08.002Z,94.23
2019-01-30T02:44:08.001Z,93.94
2019-01-30T02:46:00.890Z,93.66
2019-01-30T02:47:00.897Z,93.85
2019-01-30T02:48:53.795Z,93.85
2019-01-30T02:49:53.790Z,93.94
2019-01-30T02:51:46.683Z,93.85
2019-01-30T02:52:46.685Z,93.47
2019-01-30T02:54:39.571Z,93.56
2019-01-30T02:55:39.575Z,93.37
2019-01-30T02:57:32.470Z,93.28
2019-01-30T02:58:32.470Z,93.37
2019-01-30T03:00:25.354Z,92.99
2019-01-30T03:01:25.365Z,92.90
2019-01-30T03:03:18.256Z,92.52
2019-01-30T03:04:18.256Z,92.90
2019-01-30T03:06:11.142Z,93.18
2019-01-30T03:07:11.152Z,92.90
2019-01-30T03:09:04.047Z,92.90
2019-01-30T03:10:04.047Z,93.09
2019-01-30T03:11:56.977Z,92.61
2019-01-30T03:12:56.945Z,92.24
2019-01-30T03:14:49.831Z,92.43
2019-01-30T03:15:49.838Z,92.43
2019-01-30T03:17:42.736Z,92.52
2019-01-30T03:18:42.735Z,92.24
2019-01-30T03:20:35.622Z,92.24
2019-01-30T03:21:35.630Z,91.96
2019-01-30T03:23:28.523Z,92.24
2019-01-30T03:24:28.523Z,91.86
2019-01-30T03:26:21.408Z,91.96
2019-01-30T03:27:21.419Z,91.96
2019-01-30T03:29:14.314Z,91.96
2019-01-30T03:30:14.314Z,92.14
2019-01-30T03:32:07.206Z,91.86
2019-01-30T03:33:07.208Z,91.86
2019-01-30T03:35:00.091Z,92.33
2019-01-30T03:36:00.101Z,92.43
2019-01-30T03:37:52.994Z,92.43
2019-01-30T03:38:52.995Z,92.24
2019-01-30T03:40:45.886Z,92.14
2019-01-30T03:41:45.889Z,92.33
2019-01-30T03:43:38.780Z,92.43
2019-01-30T03:44:38.781Z,92.43
2019-01-30T03:46:31.666Z,92.43
2019-01-30T03:47:31.677Z,92.33
2019-01-30T03:49:24.569Z,92.99
2019-01-30T03:50:24.570Z,92.05
2019-01-30T03:52:17.462Z,92.24
2019-01-30T03:53:17.465Z,92.05
2019-01-30T03:55:10.352Z,93.18
2019-01-30T03:56:10.358Z,92.33
2019-01-30T03:58:03.253Z,92.24
2019-01-30T03:59:03.251Z,92.14
2019-01-30T04:00:56.144Z,92.14
2019-01-30T04:01:56.149Z,92.24
2019-01-30T04:03:49.041Z,91.86
2019-01-30T04:04:49.046Z,92.24
2019-01-30T04:06:41.928Z,91.67
2019-01-30T04:07:41.941Z,91.96
2019-01-30T04:09:34.833Z,92.14
2019-01-30T04:10:34.834Z,91.96
2019-01-30T04:12:27.731Z,92.05
2019-01-30T04:13:27.736Z,91.77
2019-01-30T04:15:20.614Z,91.67
2019-01-30T04:16:20.622Z,91.77
2019-01-30T04:18:13.518Z,92.14
2019-01-30T04:19:13.516Z,91.67
2019-01-30T04:21:06.450Z,91.77
2019-01-30T04:22:06.411Z,92.24
2019-01-30T04:23:59.303Z,92.05
2019-01-30T04:24:59.304Z,91.96
2019-01-30T04:26:52.193Z,91.77
2019-01-30T04:27:52.208Z,92.33
2019-01-30T04:29:45.095Z,92.14
2019-01-30T04:30:45.092Z,92.43
2019-01-30T04:32:37.987Z,91.96
2019-01-30T04:33:37.987Z,92.71
2019-01-30T04:35:30.872Z,92.29
2019-01-30T04:36:30.881Z,92.85
2019-01-30T04:38:23.775Z,92.76
2019-01-30T04:39:23.782Z,92.99
2019-01-30T04:41:16.659Z,92.99
2019-01-30T04:42:16.677Z,92.71
2019-01-30T04:44:09.562Z,92.71
2019-01-30T04:45:09.563Z,92.71
2019-01-30T04:47:02.455Z,92.90
2019-01-30T04:48:02.457Z,92.90
2019-01-30T04:49:55.359Z,92.61
2019-01-30T04:50:55.358Z,93.04
2019-01-30T04:52:48.251Z,93.04
2019-01-30T04:53:48.252Z,92.80
2019-01-30T04:55:41.137Z,93.66
2019-01-30T04:56:41.145Z,93.18
2019-01-30T04:58:34.038Z,92.99
2019-01-30T04:59:34.049Z,93.18
2019-01-30T05:01:26.933Z,92.80
2019-01-30T05:02:26.984Z,93.56
2019-01-30T05:04:19.826Z,93.47
2019-01-30T05:05:19.828Z,93.18
2019-01-30T05:07:12.720Z,93.18
2019-01-30T05:08:12.720Z,93.28
2019-01-30T05:10:05.611Z,93.37
2019-01-30T05:11:05.618Z,93.37
2019-01-30T05:12:58.514Z,92.99
2019-01-30T05:13:58.511Z,93.37
2019-01-30T05:15:51.397Z,92.90
2019-01-30T05:16:51.406Z,92.90
2019-01-30T05:18:44.311Z,92.52
2019-01-30T05:19:44.310Z,92.05
2019-01-30T05:21:37.194Z,92.05
2019-01-30T05:22:37.283Z,91.77
2019-01-30T05:24:30.120Z,91.67
2019-01-30T05:25:30.118Z,91.67
2019-01-30T05:27:23.014Z,91.96
2019-01-30T05:28:23.012Z,91.77
2019-01-30T05:30:15.911Z,91.77
2019-01-30T05:31:15.905Z,91.48
2019-01-30T05:33:08.802Z,91.48
2019-01-30T05:34:08.799Z,91.77
2019-01-30T05:36:01.706Z,91.48
2019-01-30T05:37:01.709Z,91.58
2019-01-30T05:38:54.603Z,91.20
2019-01-30T05:39:54.604Z,91.01
2019-01-30T05:41:47.495Z,91.20
2019-01-30T05:42:47.505Z,90.91
2019-01-30T05:44:40.398Z,91.10
2019-01-30T05:45:40.400Z,91.10
2019-01-30T05:47:33.297Z,90.82
2019-01-30T05:48:33.298Z,90.82
2019-01-30T05:50:26.181Z,90.63
2019-01-30T05:51:26.192Z,90.82
2019-01-30T05:53:19.090Z,90.63
2019-01-30T05:54:19.092Z,90.72
2019-01-30T05:56:11.976Z,90.06
2019-01-30T05:57:11.984Z,90.06
2019-01-30T05:59:04.876Z,89.69
2019-01-30T06:00:04.877Z,89.87
2019-01-30T06:01:57.766Z,89.31
2019-01-30T06:02:57.785Z,89.69
2019-01-30T06:04:50.666Z,89.59
2019-01-30T06:05:50.671Z,89.31
2019-01-30T06:07:43.562Z,88.93
2019-01-30T06:08:43.560Z,88.83
2019-01-30T06:10:36.445Z,89.40
2019-01-30T06:11:36.455Z,89.40
2019-01-30T06:13:29.347Z,89.78
2019-01-30T06:14:29.352Z,89.21
2019-01-30T06:16:22.259Z,89.69
2019-01-30T06:17:22.259Z,89.59
2019-01-30T06:19:15.153Z,89.87
2019-01-30T06:20:15.155Z,89.87
2019-01-30T06:22:08.048Z,89.50
2019-01-30T06:23:08.056Z,89.12
2019-01-30T06:25:00.960Z,88.74
2019-01-30T06:26:00.951Z,89.21
2019-01-30T06:27:53.844Z,89.12
2019-01-30T06:28:53.851Z,89.12
2019-01-30T06:30:46.727Z,89.21
2019-01-30T06:31:46.744Z,89.21
2019-01-30T06:33:39.636Z,88.93
2019-01-30T06:34:39.634Z,89.12
2019-01-30T06:36:32.522Z,88.74
2019-01-30T06:37:32.533Z,89.12
2019-01-30T06:39:25.430Z,88.55
2019-01-30T06:40:25.427Z,88.36
2019-01-30T06:42:18.319Z,88.83
2019-01-30T06:43:18.382Z,88.74
2019-01-30T06:45:11.216Z,89.02
2019-01-30T06:46:11.212Z,89.21
2019-01-30T06:48:04.106Z,89.12
2019-01-30T06:49:04.109Z,88.55
2019-01-30T06:50:56.998Z,88.26
2019-01-30T06:51:57.001Z,88.26
2019-01-30T06:53:49.893Z,88.45
2019-01-30T06:54:49.894Z,87.98
2019-01-30T06:56:42.780Z,87.79
2019-01-30T06:57:42.789Z,87.88
2019-01-30T06:59:35.684Z,87.79
2019-01-30T07:00:35.687Z,87.79
2019-01-30T07:02:32.427Z,87.32
2019-01-30T07:03:28.578Z,87.13
2019-01-30T07:05:21.472Z,86.85
2019-01-30T07:06:21.473Z,87.13
2019-01-30T07:08:14.366Z,86.85
2019-01-30T07:09:14.369Z,87.04
2019-01-30T07:11:10.635Z,87.41
2019-01-30T07:12:07.261Z,86.85
2019-01-30T07:14:00.228Z,86.66
2019-01-30T07:15:00.308Z,86.47
2019-01-30T07:16:53.043Z,86.94
2019-01-30T07:17:53.050Z,86.47
2019-01-30T07:19:45.951Z,85.99
2019-01-30T07:20:45.941Z,86.47
2019-01-30T07:22:38.830Z,86.37
2019-01-30T07:23:38.838Z,86.37
2019-01-30T07:25:31.733Z,86.09
2019-01-30T07:26:31.736Z,86.47
2019-01-30T07:28:24.628Z,86.09
2019-01-30T07:29:24.629Z,86.09
2019-01-30T07:31:19.250Z,85.52
2019-01-30T07:32:17.522Z,85.71
2019-01-30T07:34:10.418Z,85.52
2019-01-30T07:35:10.419Z,85.52
2019-01-30T07:37:03.309Z,85.42
2019-01-30T07:38:03.313Z,84.86
2019-01-30T07:39:56.210Z,84.86
2019-01-30T07:40:56.213Z,84.95
2019-01-30T07:42:49.092Z,84.77
2019-01-30T07:43:49.099Z,84.86
2019-01-30T07:45:41.995Z,85.05
2019-01-30T07:46:41.998Z,84.86
2019-01-30T07:48:34.891Z,85.05
2019-01-30T07:49:34.890Z,84.86
2019-01-30T07:51:27.778Z,84.86
2019-01-30T07:52:27.786Z,84.39
2019-01-30T07:54:20.683Z,84.67
2019-01-30T07:55:20.688Z,84.77
2019-01-30T07:57:13.570Z,84.20
2019-01-30T07:58:13.579Z,84.20
2019-01-30T08:00:06.551Z,84.20
2019-01-30T08:01:06.476Z,84.48
2019-01-30T08:02:59.363Z,84.95
2019-01-30T08:03:59.371Z,85.14
2019-01-30T08:05:52.264Z,84.95
2019-01-30T08:06:52.265Z,84.67
2019-01-30T08:08:45.150Z,84.95
2019-01-30T08:09:45.159Z,84.58
2019-01-30T08:11:38.053Z,84.48
2019-01-30T08:12:38.054Z,84.77
2019-01-30T08:14:30.949Z,84.86
2019-01-30T08:15:30.948Z,84.10
2019-01-30T08:17:23.836Z,84.01
2019-01-30T08:18:23.850Z,83.82
2019-01-30T08:20:16.739Z,84.10
2019-01-30T08:21:16.742Z,83.63
2019-01-30T08:23:09.754Z,83.53
2019-01-30T08:24:09.979Z,83.72
2019-01-30T08:26:02.537Z,83.34
2019-01-30T08:27:02.685Z,83.44
2019-01-30T08:28:55.545Z,83.76
2019-01-30T08:29:55.756Z,83.29
2019-01-30T08:31:48.356Z,83.48
2019-01-30T08:32:48.346Z,83.01
2019-01-30T08:34:41.220Z,82.44
2019-01-30T08:35:41.221Z,82.44
2019-01-30T08:37:34.110Z,82.15
2019-01-30T08:38:34.121Z,81.77
2019-01-30T08:40:27.020Z,81.77
2019-01-30T08:41:27.017Z,82.25
2019-01-30T08:43:19.905Z,81.77
2019-01-30T08:44:19.914Z,81.30
2019-01-30T08:46:12.809Z,81.12
2019-01-30T08:47:12.813Z,81.30
2019-01-30T08:49:05.697Z,80.93
2019-01-30T08:50:05.707Z,81.49
2019-01-30T08:51:58.641Z,81.12
2019-01-30T08:52:58.643Z,81.59
2019-01-30T08:54:51.543Z,80.55
2019-01-30T08:55:51.542Z,80.74
2019-01-30T08:57:44.432Z,79.88
2019-01-30T08:58:44.444Z,78.94
2019-01-30T09:00:37.340Z,79.03
2019-01-30T09:01:37.339Z,78.94
2019-01-30T09:03:30.228Z,79.03
2019-01-30T09:04:30.237Z,78.65
2019-01-30T09:06:23.136Z,78.94
2019-01-30T09:07:23.141Z,79.03
2019-01-30T09:09:16.024Z,78.46
2019-01-30T09:10:16.116Z,78.65
2019-01-30T09:12:08.931Z,78.18
2019-01-30T09:13:08.935Z,78.18
2019-01-30T09:15:01.846Z,78.08
2019-01-30T09:16:01.833Z,78.18
2019-01-30T09:17:54.720Z,78.37
2019-01-30T09:18:54.730Z,78.41
2019-01-30T09:20:47.625Z,78.69
2019-01-30T09:21:47.628Z,78.41
2019-01-30T09:23:40.513Z,77.46
2019-01-30T09:24:40.523Z,77.84
2019-01-30T09:26:33.422Z,77.37
2019-01-30T09:27:33.421Z,77.46
2019-01-30T09:29:26.309Z,77.27
2019-01-30T09:30:26.321Z,76.80
2019-01-30T09:32:19.219Z,76.51
2019-01-30T09:33:25.867Z,76.32
2019-01-30T09:35:12.109Z,77.27
2019-01-30T09:36:12.124Z,76.89
2019-01-30T09:38:05.061Z,77.27
2019-01-30T09:39:05.019Z,76.61
2019-01-30T09:40:57.943Z,76.32
2019-01-30T09:41:57.937Z,77.18
2019-01-30T09:43:50.815Z,76.42
2019-01-30T09:44:50.822Z,76.51
2019-01-30T09:46:43.742Z,75.57
2019-01-30T09:47:43.722Z,75.95
2019-01-30T09:49:36.612Z,76.32
2019-01-30T09:50:36.645Z,75.95
2019-01-30T09:52:29.521Z,76.14
2019-01-30T09:53:29.572Z,75.66
2019-01-30T09:55:22.415Z,74.90
2019-01-30T09:56:22.431Z,75.19
2019-01-30T09:58:15.322Z,75.28
2019-01-30T09:59:15.325Z,75.57
2019-01-30T10:01:08.233Z,75.47
2019-01-30T10:02:08.226Z,74.81
2019-01-30T10:04:01.114Z,74.52
2019-01-30T10:05:01.128Z,74.52
2019-01-30T10:06:54.024Z,74.43
2019-01-30T10:07:55.355Z,74.90
2019-01-30T10:09:46.915Z,75.47
2019-01-30T10:10:46.926Z,75.47
2019-01-30T10:12:39.826Z,75.66
2019-01-30T10:13:39.826Z,75.47
2019-01-30T10:15:32.720Z,75.47
2019-01-30T10:16:32.732Z,75.57
2019-01-30T10:18:25.630Z,75.09
2019-01-30T10:19:25.632Z,74.81
2019-01-30T10:21:18.530Z,75.28
2019-01-30T10:22:18.534Z,75.47
2019-01-30T10:24:11.421Z,75.57
2019-01-30T10:25:11.434Z,75.28
2019-01-30T10:27:04.399Z,74.24
2019-01-30T10:28:04.334Z,74.24
2019-01-30T10:29:58.792Z,74.62
2019-01-30T10:30:57.233Z,74.05
2019-01-30T10:32:50.132Z,73.86
2019-01-30T10:33:50.134Z,74.52
2019-01-30T10:35:43.022Z,74.71
2019-01-30T10:36:43.032Z,74.52
2019-01-30T10:38:35.939Z,74.43
2019-01-30T10:39:35.933Z,75.13
2019-01-30T10:41:28.833Z,74.28
2019-01-30T10:42:28.834Z,74.05
2019-01-30T10:44:21.720Z,73.77
2019-01-30T10:45:21.732Z,74.71
2019-01-30T10:47:14.705Z,74.33
2019-01-30T10:48:14.633Z,74.15
2019-01-30T10:50:07.525Z,74.43
2019-01-30T10:51:07.567Z,74.81
2019-01-30T10:53:00.435Z,74.90
2019-01-30T10:54:00.438Z,74.33
2019-01-30T10:55:53.330Z,74.05
2019-01-30T10:56:53.340Z,74.52
2019-01-30T10:58:46.236Z,74.43
2019-01-30T10:59:46.239Z,75.28
2019-01-30T11:01:39.138Z,75.47
2019-01-30T11:02:39.141Z,75.19
2019-01-30T11:04:32.031Z,76.32
2019-01-30T11:05:32.041Z,77.65
2019-01-30T11:07:24.938Z,78.69
2019-01-30T11:08:24.940Z,78.88
2019-01-30T11:10:17.831Z,81.25
2019-01-30T11:11:17.841Z,81.92
2019-01-30T11:13:10.739Z,82.39
2019-01-30T11:14:10.739Z,83.05
2019-01-30T11:16:03.632Z,82.86
2019-01-30T11:17:03.642Z,83.43
2019-01-30T11:18:56.541Z,83.71
2019-01-30T11:19:56.542Z,83.05
2019-01-30T11:21:49.442Z,83.90
2019-01-30T11:22:49.441Z,84.23
2019-01-30T11:24:42.333Z,85.04
2019-01-30T11:25:42.342Z,84.90
2019-01-30T11:27:35.243Z,84.56
2019-01-30T11:28:35.243Z,85.04
2019-01-30T11:30:28.134Z,85.04
2019-01-30T11:31:28.144Z,84.85
2019-01-30T11:33:21.057Z,84.85
2019-01-30T11:34:21.044Z,84.47
2019-01-30T11:36:13.932Z,84.94
2019-01-30T11:37:13.944Z,84.85
2019-01-30T11:39:06.842Z,84.85
2019-01-30T11:40:06.845Z,84.94
2019-01-30T11:41:59.745Z,84.38
2019-01-30T11:42:59.747Z,84.47
2019-01-30T11:44:52.636Z,84.75
2019-01-30T11:45:52.647Z,84.38
2019-01-30T11:47:45.544Z,84.75
2019-01-30T11:48:45.546Z,84.38
2019-01-30T11:50:38.434Z,84.66
2019-01-30T11:51:38.445Z,85.04
2019-01-30T11:53:31.342Z,84.19
2019-01-30T11:54:38.657Z,83.90
2019-01-30T11:56:24.233Z,84.33
2019-01-30T11:57:24.243Z,84.94
2019-01-30T11:59:17.144Z,84.90
2019-01-30T12:00:17.143Z,84.71
2019-01-30T12:02:10.040Z,85.85
2019-01-30T12:03:10.045Z,85.75
2019-01-30T12:05:02.936Z,86.98
2019-01-30T12:06:02.942Z,87.08
2019-01-30T12:07:55.839Z,87.65
2019-01-30T12:08:55.841Z,87.36
2019-01-30T12:10:48.728Z,87.98
2019-01-30T12:11:48.737Z,88.26
2019-01-30T12:13:41.634Z,87.88
2019-01-30T12:14:41.635Z,88.59
2019-01-30T12:16:34.524Z,88.59
2019-01-30T12:17:34.535Z,88.78
2019-01-30T12:19:27.431Z,89.16
2019-01-30T12:21:40.320Z,89.87
2019-01-30T12:22:40.333Z,89.92
2019-01-30T12:24:33.226Z,90.58
2019-01-30T12:25:33.227Z,90.96
2019-01-30T12:27:26.134Z,90.48
2019-01-30T12:28:26.126Z,90.91
2019-01-30T12:30:19.017Z,91.00
2019-01-30T12:31:19.025Z,91.19
2019-01-30T12:33:11.925Z,90.91
2019-01-30T12:34:11.925Z,90.44
2019-01-30T12:36:04.819Z,90.77
2019-01-30T12:37:04.827Z,90.91
2019-01-30T12:38:57.725Z,91.72
2019-01-30T12:39:57.731Z,91.53
2019-01-30T12:41:50.619Z,91.53
2019-01-30T12:42:50.627Z,91.81
2019-01-30T12:44:43.525Z,91.91
2019-01-30T12:45:43.528Z,92.19
2019-01-30T12:47:36.447Z,92.52
2019-01-30T12:48:36.429Z,92.43
2019-01-30T12:50:29.316Z,93.27
2019-01-30T12:51:29.326Z,92.43
2019-01-30T12:53:22.223Z,91.48
2019-01-30T12:54:22.227Z,91.86
2019-01-30T12:56:15.113Z,91.86
2019-01-30T12:57:15.128Z,91.86
2019-01-30T12:59:08.021Z,91.67
2019-01-30T13:00:08.024Z,91.38
2019-01-30T13:02:00.913Z,92.05
2019-01-30T13:03:00.927Z,92.05
2019-01-30T13:04:53.819Z,91.95
2019-01-30T13:05:53.828Z,91.86
2019-01-30T13:07:46.716Z,92.43
2019-01-30T13:08:46.723Z,91.86
2019-01-30T13:10:39.623Z,91.67
2019-01-30T13:11:39.623Z,91.76
2019-01-30T13:13:32.521Z,91.91
2019-01-30T13:14:32.524Z,92.14
2019-01-30T13:16:25.414Z,91.95
2019-01-30T13:17:25.423Z,91.86
2019-01-30T13:19:18.321Z,91.95
2019-01-30T13:20:18.398Z,91.95
2019-01-30T13:22:11.213Z,92.05
2019-01-30T13:23:11.224Z,91.76
2019-01-30T13:25:04.119Z,91.67
2019-01-30T13:26:04.120Z,91.76
2019-01-30T13:27:57.010Z,91.29
2019-01-30T13:28:57.016Z,92.24
2019-01-30T13:30:49.915Z,91.29
2019-01-30T13:31:49.918Z,91.38
2019-01-30T13:33:42.817Z,91.00
2019-01-30T13:34:48.755Z,91.10
2019-01-30T13:36:35.705Z,91.19
2019-01-30T13:37:35.717Z,91.29
2019-01-30T13:39:28.614Z,91.48
2019-01-30T13:40:28.617Z,91.29
2019-01-30T13:42:21.505Z,91.29
2019-01-30T13:43:21.514Z,91.38
2019-01-30T13:45:14.413Z,91.38
2019-01-30T13:46:14.415Z,91.29
2019-01-30T13:48:07.313Z,91.24
2019-01-30T13:49:07.313Z,91.29
2019-01-30T13:51:00.293Z,91.86
2019-01-30T13:52:00.241Z,91.95
2019-01-30T13:53:53.112Z,92.05
2019-01-30T13:54:53.112Z,91.86
2019-01-30T13:56:46.021Z,91.38
2019-01-30T13:57:46.012Z,91.57
2019-01-30T13:59:38.916Z,91.29
2019-01-30T14:00:38.911Z,91.29
2019-01-30T14:02:31.808Z,91.19
2019-01-30T14:03:31.846Z,91.57
2019-01-30T14:05:24.709Z,91.29
2019-01-30T14:06:24.739Z,91.29
2019-01-30T14:08:17.601Z,91.48
2019-01-30T14:09:17.613Z,91.29
2019-01-30T14:11:10.520Z,92.24
2019-01-30T14:12:10.511Z,91.95
2019-01-30T14:14:03.407Z,92.52
2019-01-30T14:15:03.421Z,92.61
2019-01-30T14:16:56.332Z,92.05
2019-01-30T14:17:56.315Z,91.95
2019-01-30T14:19:49.208Z,91.86
2019-01-30T14:20:49.326Z,91.86
2019-01-30T14:22:42.098Z,91.86
2019-01-30T14:23:42.114Z,91.86
2019-01-30T14:25:35.032Z,92.05
2019-01-30T14:26:35.016Z,92.52
2019-01-30T14:28:27.892Z,92.43
2019-01-30T14:29:27.910Z,92.61
2019-01-30T14:31:20.799Z,92.61
2019-01-30T14:32:20.824Z,92.33
2019-01-30T14:34:13.706Z,92.52
2019-01-30T14:35:13.719Z,92.61
2019-01-30T14:37:06.604Z,92.99
2019-01-30T14:38:06.599Z,92.80
2019-01-30T14:39:59.493Z,93.27
2019-01-30T14:40:59.530Z,92.90
2019-01-30T14:42:52.422Z,93.65
2019-01-30T14:43:52.435Z,93.37
2019-01-30T14:45:45.292Z,93.65
2019-01-30T14:46:45.295Z,93.46
2019-01-30T14:48:38.204Z,93.65
2019-01-30T14:49:38.200Z,93.46
2019-01-30T14:51:31.128Z,93.27
2019-01-30T14:52:31.094Z,93.18
2019-01-30T14:54:23.991Z,93.46
2019-01-30T14:55:23.988Z,93.65
2019-01-30T14:57:16.886Z,94.04
2019-01-30T14:58:16.891Z,94.13
2019-01-30T15:00:09.789Z,93.75
2019-01-30T15:01:09.810Z,93.56
2019-01-30T15:03:02.675Z,93.75
2019-01-30T15:04:02.684Z,93.75
2019-01-30T15:05:55.591Z,93.56
2019-01-30T15:06:55.581Z,93.56
2019-01-30T15:08:48.509Z,93.84
2019-01-30T15:09:48.520Z,94.04
2019-01-30T15:11:41.388Z,94.13
2019-01-30T15:12:41.407Z,94.04
2019-01-30T15:14:34.270Z,93.75
2019-01-30T15:15:34.291Z,93.75
2019-01-30T15:17:27.293Z,93.37
2019-01-30T15:18:27.246Z,93.37
2019-01-30T15:20:20.140Z,93.46
2019-01-30T15:21:20.090Z,93.75
2019-01-30T15:23:12.962Z,93.27
2019-01-30T15:24:13.015Z,93.56
2019-01-30T15:26:05.979Z,93.27
2019-01-30T15:27:05.871Z,93.37
2019-01-30T15:28:58.764Z,92.90
2019-01-30T15:29:58.772Z,93.08
2019-01-30T15:31:51.671Z,93.84
2019-01-30T15:32:51.675Z,94.13
2019-01-30T15:34:44.567Z,94.23
2019-01-30T15:35:44.572Z,94.13
2019-01-30T15:37:37.490Z,94.60
2019-01-30T15:38:37.471Z,94.51
2019-01-30T15:40:30.374Z,95.07
2019-01-30T15:41:30.376Z,95.36
2019-01-30T15:43:23.263Z,96.12
2019-01-30T15:44:23.272Z,96.40
2019-01-30T15:46:16.175Z,96.12
2019-01-30T15:47:16.175Z,96.88
2019-01-30T15:49:09.068Z,97.06
2019-01-30T15:50:09.075Z,96.97
2019-01-30T15:52:01.973Z,97.73
2019-01-30T15:53:01.977Z,97.54
2019-01-30T15:54:54.937Z,97.54
2019-01-30T15:55:54.897Z,97.63
2019-01-30T15:57:47.795Z,98.20
2019-01-30T15:58:47.793Z,98.01
2019-01-30T16:00:40.689Z,98.01
2019-01-30T16:01:40.731Z,98.20
2019-01-30T16:03:33.586Z,98.11
2019-01-30T16:04:33.591Z,98.20
2019-01-30T16:06:26.490Z,98.49
2019-01-30T16:07:26.529Z,98.68
2019-01-30T16:09:19.414Z,98.68
2019-01-30T16:10:19.424Z,98.68
2019-01-30T16:12:12.381Z,98.58
2019-01-30T16:13:12.322Z,98.68
2019-01-30T16:15:05.207Z,98.68
2019-01-30T16:16:05.213Z,98.68
2019-01-30T16:17:58.177Z,98.77
2019-01-30T16:18:58.131Z,98.68
2019-01-30T16:20:51.576Z,98.58
2019-01-30T16:21:51.008Z,98.58
2019-01-30T16:23:43.917Z,98.68
2019-01-30T16:24:43.921Z,98.86
2019-01-30T16:26:36.928Z,99.24
2019-01-30T16:27:36.815Z,98.77
2019-01-30T16:29:29.673Z,99.15
2019-01-30T16:30:29.741Z,99.71
2019-01-30T16:32:22.736Z,99.62
2019-01-30T16:33:22.605Z,99.52
2019-01-30T16:35:15.578Z,99.62
2019-01-30T16:36:15.517Z,99.71
2019-01-30T16:38:08.476Z,99.71
2019-01-30T16:39:08.462Z,99.24
2019-01-30T16:41:01.327Z,98.96
2019-01-30T16:42:01.361Z,98.96
2019-01-30T16:43:54.323Z,99.05
2019-01-30T16:44:54.259Z,99.33
2019-01-30T16:46:47.131Z,99.15
2019-01-30T16:47:47.121Z,98.96
2019-01-30T16:49:40.100Z,98.86
2019-01-30T16:50:40.078Z,98.86
2019-01-30T16:52:33.112Z,99.24
2019-01-30T16:53:33.023Z,98.58
2019-01-30T16:55:25.845Z,98.49
2019-01-30T16:56:25.936Z,98.77
2019-01-30T16:58:18.755Z,98.39
2019-01-30T16:59:18.735Z,98.49
2019-01-30T17:01:11.638Z,98.49
2019-01-30T17:02:11.631Z,98.39
2019-01-30T17:04:04.547Z,98.39
2019-01-30T17:05:04.544Z,98.01
2019-01-30T17:06:57.500Z,97.92
2019-01-30T17:07:57.486Z,98.01
2019-01-30T17:09:50.346Z,98.11
2019-01-30T17:10:50.344Z,98.20
2019-01-30T17:12:43.381Z,98.20
2019-01-30T17:13:43.297Z,98.11
2019-01-30T17:15:36.140Z,98.01
2019-01-30T17:16:36.196Z,97.92
2019-01-30T17:18:29.206Z,98.11
2019-01-30T17:19:29.090Z,98.11
2019-01-30T17:21:21.997Z,97.73
2019-01-30T17:22:21.979Z,98.20
2019-01-30T17:24:14.915Z,98.49
2019-01-30T17:25:14.863Z,98.11
2019-01-30T17:27:07.828Z,98.20
2019-01-30T17:28:07.820Z,98.25
2019-01-30T17:30:00.662Z,98.01
2019-01-30T17:31:00.727Z,98.01
2019-01-30T17:32:53.655Z,98.30
2019-01-30T17:33:53.584Z,98.35
2019-01-30T17:35:46.463Z,98.35
2019-01-30T17:36:46.475Z,98.35
2019-01-30T17:38:39.365Z,98.16
2019-01-30T17:39:39.369Z,98.11
2019-01-30T17:41:32.257Z,98.35
2019-01-30T17:42:32.268Z,98.11
2019-01-30T17:44:25.166Z,98.06
2019-01-30T17:45:25.170Z,97.73
2019-01-30T17:47:18.153Z,98.06
2019-01-30T17:48:18.123Z,98.06
2019-01-30T17:50:10.955Z,97.97
2019-01-30T17:51:10.965Z,98.11
2019-01-30T17:53:03.865Z,98.86
2019-01-30T17:54:03.865Z,98.68
2019-01-30T17:55:56.755Z,98.39
2019-01-30T17:56:56.767Z,98.39
2019-01-30T17:58:49.662Z,98.96
2019-01-30T17:59:49.667Z,98.68
2019-01-30T18:01:42.556Z,99.52
2019-01-30T18:02:42.565Z,99.24
2019-01-30T18:04:35.462Z,99.15
2019-01-30T18:05:35.467Z,99.43
2019-01-30T18:07:28.362Z,99.15
2019-01-30T18:08:28.363Z,99.15
2019-01-30T18:10:21.256Z,98.86
2019-01-30T18:11:21.268Z,98.96
2019-01-30T18:13:14.163Z,99.71
2019-01-30T18:14:14.168Z,99.52
2019-01-30T18:16:07.056Z,99.52
2019-01-30T18:17:07.067Z,99.71
2019-01-30T18:18:59.965Z,99.43
2019-01-30T18:19:59.969Z,99.99
2019-01-30T18:21:52.860Z,98.86
2019-01-30T18:22:52.872Z,99.52
2019-01-30T18:24:45.768Z,99.90
2019-01-30T18:25:45.772Z,99.99
2019-01-30T18:27:38.689Z,99.86
2019-01-30T18:28:38.682Z,99.96
2019-01-30T18:30:31.567Z,99.86
2019-01-30T18:31:31.578Z,99.62
2019-01-30T18:33:24.475Z,99.71
2019-01-30T18:34:24.475Z,99.52